Time;durP1;ratioP1;P1;durP2;ratioP2;P2;SDS_P1;SDS_P2;PMS_P1;PMS_P2;Temp;Humidity;BMP_temperature;BMP_pressure;BME280_temperature;BME280_humidity;BME280_pressure;Samples;Min_cycle;Max_cycle;Signal;HPM_P1;HPM_P2
2023/09/20 00:00:54;;;;;;;8.90;5.32;;;11.50;99.90;;;;;;8204700;28;20079;-80
2023/09/20 00:04:55;;;;;;;8.52;5.93;;;11.50;99.90;;;;;;8186888;28;20016;-80
2023/09/20 00:08:56;;;;;;;5.95;4.55;;;11.60;99.90;;;;;;8202370;28;20491;-79
2023/09/20 00:12:56;;;;;;;6.03;5.03;;;11.70;99.90;;;;;;8203795;28;20023;-80
2023/09/20 00:16:57;;;;;;;9.10;5.00;;;11.80;99.90;;;;;;8180705;28;20035;-80
2023/09/20 00:21:01;;;;;;;6.75;5.38;;;11.80;99.90;;;;;;8203628;28;20109;-80
2023/09/20 00:25:02;;;;;;;7.43;5.40;;;11.70;99.90;;;;;;8196322;28;20159;-80
2023/09/20 00:29:05;;;;;;;7.78;5.60;;;11.80;99.90;;;;;;8201279;28;20043;-80
2023/09/20 00:33:06;;;;;;;11.30;5.35;;;11.90;99.90;;;;;;8202111;28;20030;-78
2023/09/20 00:37:07;;;;;;;7.65;4.95;;;12.00;99.90;;;;;;8183604;28;20377;-78
2023/09/20 00:41:07;;;;;;;6.72;5.15;;;12.30;99.90;;;;;;8203433;28;20102;-79
2023/09/20 00:45:09;;;;;;;5.70;5.03;;;12.40;99.90;;;;;;8206313;28;20065;-80
2023/09/20 00:49:10;;;;;;;8.23;4.70;;;12.20;99.90;;;;;;8204188;28;20023;-80
2023/09/20 00:53:13;;;;;;;6.35;4.47;;;12.10;99.90;;;;;;8203076;28;20063;-79
2023/09/20 00:57:14;;;;;;;5.32;4.68;;;12.00;99.90;;;;;;8199541;28;20039;-80
2023/09/20 01:01:15;;;;;;;8.18;4.63;;;11.90;99.90;;;;;;8204455;28;20466;-80
2023/09/20 01:05:21;;;;;;;6.28;4.88;;;11.90;99.90;;;;;;8205834;28;20090;-80
2023/09/20 01:09:22;;;;;;;5.55;4.88;;;11.90;99.90;;;;;;8199839;28;20046;-79
2023/09/20 01:13:23;;;;;;;6.38;5.43;;;11.90;99.90;;;;;;8201523;28;20726;-79
2023/09/20 01:17:23;;;;;;;7.93;5.22;;;12.00;99.90;;;;;;8201355;28;20125;-80
2023/09/20 01:21:24;;;;;;;5.20;4.50;;;12.00;99.90;;;;;;8198656;28;20053;-79
2023/09/20 01:25:26;;;;;;;6.07;4.88;;;12.20;99.90;;;;;;8199308;28;20031;-80
2023/09/20 01:29:28;;;;;;;8.02;5.20;;;12.30;99.90;;;;;;8201375;28;20703;-80
2023/09/20 01:33:28;;;;;;;5.55;4.35;;;12.20;99.90;;;;;;8183597;28;20066;-78
2023/09/20 01:37:29;;;;;;;5.32;4.18;;;12.20;99.90;;;;;;8192366;28;20026;-80
2023/09/20 01:41:30;;;;;;;5.35;4.60;;;12.10;99.90;;;;;;8197848;28;20055;-79
2023/09/20 01:45:32;;;;;;;7.05;4.32;;;12.10;99.90;;;;;;8200816;28;20050;-80
2023/09/20 01:49:34;;;;;;;5.63;4.45;;;12.10;99.90;;;;;;8199606;28;20050;-80
2023/09/20 01:53:35;;;;;;;4.78;4.13;;;11.90;99.90;;;;;;8201635;28;20038;-80
2023/09/20 01:57:35;;;;;;;7.25;4.50;;;11.60;99.90;;;;;;8199168;28;20039;-80
2023/09/20 02:01:37;;;;;;;9.73;4.85;;;11.30;99.90;;;;;;8202798;28;20498;-78
2023/09/20 02:05:38;;;;;;;7.28;5.60;;;11.30;99.90;;;;;;8201506;28;20070;-79
2023/09/20 02:09:40;;;;;;;7.85;6.10;;;11.20;99.90;;;;;;8199067;28;20074;-79
2023/09/20 02:13:42;;;;;;;12.10;6.63;;;11.20;99.90;;;;;;8199473;28;20457;-80
2023/09/20 02:17:42;;;;;;;6.93;5.13;;;11.50;99.90;;;;;;8182981;28;20369;-79
2023/09/20 02:21:43;;;;;;;6.88;5.35;;;11.60;99.90;;;;;;8197884;28;20031;-80
2023/09/20 02:25:43;;;;;;;7.95;5.35;;;11.40;99.90;;;;;;8202310;28;20027;-79
2023/09/20 02:29:44;;;;;;;6.40;5.00;;;11.30;99.90;;;;;;8187555;28;20162;-79
2023/09/20 02:33:44;;;;;;;8.15;5.70;;;11.20;99.90;;;;;;8202958;28;20023;-80
2023/09/20 02:37:48;;;;;;;6.80;5.82;;;10.90;99.90;;;;;;8201149;28;20051;-79
2023/09/20 02:41:49;;;;;;;6.60;5.18;;;10.90;99.90;;;;;;8200530;28;20023;-80
2023/09/20 02:45:49;;;;;;;10.07;5.25;;;10.80;99.90;;;;;;8195999;28;20045;-79
2023/09/20 02:49:50;;;;;;;6.45;5.20;;;10.70;99.90;;;;;;8200360;28;20492;-80
2023/09/20 02:53:51;;;;;;;7.85;5.20;;;10.60;99.90;;;;;;8205039;28;20027;-78
2023/09/20 02:57:54;;;;;;;8.32;4.90;;;10.50;99.90;;;;;;8203693;28;20127;-80
2023/09/20 03:01:55;;;;;;;7.57;4.90;;;10.40;99.90;;;;;;8201876;28;20031;-79
2023/09/20 03:05:56;;;;;;;7.93;5.85;;;10.20;99.90;;;;;;8204705;28;20466;-80
2023/09/20 03:09:58;;;;;;;12.05;5.53;;;10.20;99.90;;;;;;8205179;28;20035;-79
2023/09/20 03:14:03;;;;;;;6.25;4.80;;;10.20;99.90;;;;;;8207904;28;20027;-79
2023/09/20 03:18:08;;;;;;;6.32;5.15;;;10.10;99.90;;;;;;8206766;28;20503;-79
2023/09/20 03:22:10;;;;;;;7.38;5.20;;;9.90;99.90;;;;;;8211741;28;20588;-79
2023/09/20 03:26:10;;;;;;;8.80;5.72;;;9.80;99.90;;;;;;8208741;28;20028;-79
2023/09/20 03:30:13;;;;;;;9.43;6.15;;;9.70;99.90;;;;;;8205396;28;20503;-79
2023/09/20 03:34:14;;;;;;;8.60;6.68;;;9.80;99.90;;;;;;8208167;28;20110;-79
2023/09/20 03:38:15;;;;;;;8.27;6.28;;;9.80;99.90;;;;;;8209549;28;20035;-78
2023/09/20 03:42:15;;;;;;;8.85;5.82;;;9.80;99.90;;;;;;8199980;28;20428;-79
2023/09/20 03:46:16;;;;;;;10.13;7.82;;;9.70;99.90;;;;;;8200692;28;20046;-79
2023/09/20 03:50:19;;;;;;;11.20;6.82;;;9.70;99.90;;;;;;8204311;28;20504;-79
2023/09/20 03:54:20;;;;;;;9.43;6.45;;;9.80;99.90;;;;;;8196699;28;20055;-79
2023/09/20 03:58:21;;;;;;;7.15;6.03;;;9.80;99.90;;;;;;8202685;28;20181;-79
2023/09/20 04:02:23;;;;;;;7.10;5.75;;;9.60;99.90;;;;;;8203082;28;20024;-78
2023/09/20 04:06:25;;;;;;;7.63;6.22;;;9.60;99.90;;;;;;8225339;23;20714;-80
2023/09/20 04:10:27;;;;;;;10.27;6.85;;;9.50;99.90;;;;;;8266880;28;20129;-80
2023/09/20 04:14:28;;;;;;;6.90;5.72;;;9.60;99.90;;;;;;8249086;28;20506;-81
2023/09/20 04:18:28;;;;;;;9.45;6.03;;;9.50;99.90;;;;;;8223569;28;20037;-81
2023/09/20 04:22:31;;;;;;;8.70;6.07;;;9.40;99.90;;;;;;8234293;28;20031;-80
2023/09/20 04:26:31;;;;;;;7.95;6.03;;;9.40;99.90;;;;;;8236536;28;20023;-81
2023/09/20 04:30:33;;;;;;;8.98;5.90;;;9.30;99.90;;;;;;8222387;28;20098;-81
2023/09/20 04:34:34;;;;;;;7.40;5.50;;;9.40;99.90;;;;;;8221080;28;20022;-81
2023/09/20 04:38:34;;;;;;;6.63;5.35;;;9.40;99.90;;;;;;8220563;28;20500;-81
2023/09/20 04:42:35;;;;;;;7.32;5.40;;;9.30;99.90;;;;;;8226250;28;20029;-80
2023/09/20 04:46:36;;;;;;;7.97;5.60;;;9.30;99.90;;;;;;8215431;28;20023;-81
2023/09/20 04:50:36;;;;;;;7.78;5.07;;;9.40;99.90;;;;;;8235497;28;20035;-81
2023/09/20 04:54:37;;;;;;;7.80;5.40;;;9.40;99.90;;;;;;8239360;28;20067;-81
2023/09/20 04:58:38;;;;;;;8.48;5.40;;;9.30;99.90;;;;;;8215950;28;20085;-81
2023/09/20 05:02:38;;;;;;;8.40;5.80;;;9.30;99.90;;;;;;8215687;28;20023;-80
2023/09/20 05:06:43;;;;;;;6.45;5.20;;;9.20;99.90;;;;;;8216895;28;20038;-80
2023/09/20 05:10:43;;;;;;;7.63;6.13;;;9.20;99.90;;;;;;8214078;28;20042;-80
2023/09/20 05:14:45;;;;;;;9.43;6.72;;;9.20;99.90;;;;;;8227529;28;20039;-80
2023/09/20 05:18:45;;;;;;;7.47;6.07;;;9.20;99.90;;;;;;8220681;28;20126;-81
2023/09/20 05:22:46;;;;;;;9.27;6.30;;;9.20;99.90;;;;;;8224420;28;20035;-81
2023/09/20 05:26:47;;;;;;;7.63;5.38;;;9.10;99.90;;;;;;8230132;28;20127;-81
2023/09/20 05:30:47;;;;;;;8.70;7.03;;;9.10;99.90;;;;;;8231005;28;20527;-80
2023/09/20 05:34:48;;;;;;;10.02;7.43;;;9.20;99.90;;;;;;8229742;28;20093;-80
2023/09/20 05:38:49;;;;;;;9.77;7.32;;;9.30;99.90;;;;;;8232996;28;20097;-81
2023/09/20 05:42:50;;;;;;;11.27;7.28;;;9.40;99.90;;;;;;8230142;28;20026;-81
2023/09/20 05:46:51;;;;;;;11.20;6.82;;;9.50;99.90;;;;;;8231328;28;20614;-81
2023/09/20 05:50:54;;;;;;;11.60;7.00;;;9.70;99.90;;;;;;8216109;28;20035;-80
2023/09/20 05:54:55;;;;;;;12.43;7.32;;;9.80;99.90;;;;;;8231856;28;20019;-81
2023/09/20 05:58:56;;;;;;;9.10;6.43;;;9.90;99.90;;;;;;8233223;28;20648;-80
2023/09/20 06:02:57;;;;;;;9.88;7.32;;;10.10;99.90;;;;;;8232657;28;20019;-81
2023/09/20 06:07:00;;;;;;;9.32;7.20;;;10.20;99.90;;;;;;8233004;28;20088;-80
2023/09/20 06:11:04;;;;;;;8.38;7.03;;;10.30;99.90;;;;;;8215294;28;20027;-81
2023/09/20 06:15:07;;;;;;;8.60;6.80;;;10.40;99.90;;;;;;8211889;28;20023;-80
2023/09/20 06:19:08;;;;;;;9.98;6.78;;;10.60;99.90;;;;;;8215672;28;20042;-80
2023/09/20 06:23:08;;;;;;;9.57;6.60;;;10.70;99.90;;;;;;8229366;28;20022;-81
2023/09/20 06:27:09;;;;;;;9.43;6.68;;;10.90;99.90;;;;;;8241349;28;20027;-81
2023/09/20 06:31:13;;;;;;;9.65;6.70;;;11.10;99.90;;;;;;8242477;28;20125;-80
2023/09/20 06:35:20;;;;;;;9.25;6.30;;;11.30;99.90;;;;;;8225002;28;20045;-81
2023/09/20 06:39:20;;;;;;;9.57;6.35;;;11.60;99.90;;;;;;8242263;28;20035;-78
2023/09/20 06:43:21;;;;;;;7.35;6.03;;;11.80;99.90;;;;;;8242001;28;20078;-80
2023/09/20 06:47:22;;;;;;;8.27;6.32;;;11.80;99.90;;;;;;8244019;28;20043;-81
2023/09/20 06:51:23;;;;;;;6.55;5.25;;;11.90;99.90;;;;;;8226095;28;20113;-79
2023/09/20 06:55:25;;;;;;;5.50;4.90;;;12.40;99.90;;;;;;8225486;28;20570;-79
2023/09/20 06:59:26;;;;;;;6.10;5.50;;;12.50;99.90;;;;;;8226211;28;20059;-80
2023/09/20 07:03:26;;;;;;;9.98;5.47;;;12.50;99.90;;;;;;8224592;28;20498;-80
2023/09/20 07:07:27;;;;;;;5.70;4.35;;;12.70;99.90;;;;;;8242083;28;20439;-80
2023/09/20 07:11:29;;;;;;;5.15;4.65;;;13.10;99.90;;;;;;8242065;28;20055;-80
2023/09/20 07:15:29;;;;;;;8.70;3.97;;;13.10;99.90;;;;;;8241654;28;20031;-81
2023/09/20 07:19:30;;;;;;;6.50;4.40;;;13.20;99.90;;;;;;8224767;28;20022;-80
2023/09/20 07:23:30;;;;;;;6.70;4.40;;;13.40;99.90;;;;;;8225120;28;20019;-81
2023/09/20 07:27:32;;;;;;;5.65;3.85;;;13.60;99.90;;;;;;8242649;28;20019;-79
2023/09/20 07:31:36;;;;;;;4.25;3.58;;;13.90;99.90;;;;;;8241876;28;20019;-81
2023/09/20 07:35:47;;;;;;;4.38;3.97;;;14.40;99.90;;;;;;8223853;28;20118;-81
2023/09/20 07:39:50;;;;;;;4.85;3.20;;;14.80;99.90;;;;;;8219473;28;20518;-79
2023/09/20 07:43:53;;;;;;;8.50;3.22;;;15.10;99.90;;;;;;8219628;28;20111;-80
2023/09/20 07:47:54;;;;;;;3.13;2.80;;;15.10;99.90;;;;;;8219727;28;20031;-81
2023/09/20 07:51:54;;;;;;;5.38;3.38;;;15.10;99.90;;;;;;8221206;28;20561;-80
2023/09/20 07:56:07;;;;;;;6.13;3.40;;;15.10;99.90;;;;;;8237582;28;20037;-80
2023/09/20 08:00:10;;;;;;;3.92;3.22;;;15.20;99.90;;;;;;8231408;28;20023;-79
2023/09/20 08:04:11;;;;;;;3.45;3.08;;;15.30;99.90;;;;;;8236775;28;20011;-81
2023/09/20 08:08:12;;;;;;;3.40;2.67;;;15.80;99.90;;;;;;8236654;28;20042;-80
2023/09/20 08:12:12;;;;;;;5.75;2.53;;;16.30;99.90;;;;;;8236745;28;20027;-81
2023/09/20 08:16:13;;;;;;;4.10;2.30;;;16.50;99.90;;;;;;8235748;28;20030;-81
2023/09/20 08:20:16;;;;;;;3.55;2.75;;;16.70;99.90;;;;;;8219385;28;20081;-81
2023/09/20 09:03:11;;;;;;;3.65;1.50;;;19.70;99.90;;;;;;8229421;28;19963;-81
2023/09/20 09:07:17;;;;;;;3.33;1.48;;;20.10;99.90;;;;;;8214709;28;20034;-80
2023/09/20 09:11:18;;;;;;;2.55;1.17;;;20.20;99.90;;;;;;8216343;28;20023;-81
2023/09/20 09:15:18;;;;;;;1.85;1.10;;;20.30;99.90;;;;;;8232969;28;20027;-82
2023/09/20 09:19:19;;;;;;;3.22;1.10;;;20.70;99.90;;;;;;8234852;28;20050;-80
2023/09/20 09:23:33;;;;;;;2.15;1.10;;;21.20;99.90;;;;;;8217127;28;20030;-81
2023/09/20 09:27:36;;;;;;;2.17;1.25;;;21.60;99.90;;;;;;8217015;28;20022;-82
2023/09/20 09:31:36;;;;;;;3.33;1.20;;;22.20;99.90;;;;;;8218610;28;20110;-82
2023/09/20 09:35:37;;;;;;;1.33;1.08;;;22.50;99.90;;;;;;8215934;28;20484;-82
2023/09/20 09:39:39;;;;;;;1.95;1.10;;;22.70;99.90;;;;;;8234295;28;20026;-80
2023/09/20 09:43:40;;;;;;;2.92;1.23;;;23.10;99.90;;;;;;8219613;28;20019;-82
2023/09/20 09:47:41;;;;;;;6.20;1.80;;;23.60;99.90;;;;;;8221557;28;20086;-83
2023/09/20 09:51:46;;;;;;;1.27;1.00;;;23.80;99.90;;;;;;8236300;28;20030;-81
2023/09/20 09:55:49;;;;;;;3.47;0.90;;;23.80;99.90;;;;;;8221492;28;20033;-82
2023/09/20 09:59:51;;;;;;;8.73;1.98;;;24.00;99.90;;;;;;8236707;28;20504;-83
2023/09/20 10:03:55;;;;;;;3.72;1.17;;;24.10;99.90;;;;;;8216577;28;20019;-80
2023/09/20 10:08:01;;;;;;;1.48;1.10;;;24.10;99.90;;;;;;8234080;28;20458;-83
2023/09/20 10:12:03;;;;;;;2.22;1.13;;;24.60;99.90;;;;;;8218243;28;20239;-83
2023/09/20 10:16:10;;;;;;;3.50;1.08;;;25.30;99.90;;;;;;8237263;28;20018;-83
2023/09/20 10:20:15;;;;;;;1.50;1.10;;;25.80;99.90;;;;;;8220719;28;20035;-84
2023/09/20 10:24:26;;;;;;;2.70;1.20;;;26.50;99.90;;;;;;8220413;28;20046;-83
2023/09/20 10:28:37;;;;;;;2.50;1.05;;;27.10;99.90;;;;;;8243439;28;20031;-85
2023/09/20 10:32:43;;;;;;;1.40;1.10;;;27.60;99.90;;;;;;8224343;28;20035;-84
2023/09/20 10:36:51;;;;;;;3.55;1.10;;;27.20;99.90;;;;;;8223035;28;20030;-85
2023/09/20 10:40:56;;;;;;;2.80;1.20;;;26.90;99.90;;;;;;8224964;28;20094;-83
2023/09/20 10:45:00;;;;;;;2.15;0.93;;;27.50;99.90;;;;;;8223825;28;20027;-85
2023/09/20 10:49:00;;;;;;;1.80;1.00;;;27.80;99.90;;;;;;8222986;28;20019;-85
2023/09/20 10:53:01;;;;;;;1.85;1.20;;;27.80;99.90;;;;;;8247259;28;20041;-85
2023/09/20 10:57:05;;;;;;;2.63;1.00;;;28.30;99.70;;;;;;8224076;28;20034;-84
2023/09/20 11:01:08;;;;;;;2.58;1.05;;;28.90;99.90;;;;;;8242028;28;20048;-83
2023/09/20 11:05:13;;;;;;;2.80;1.20;;;28.90;96.60;;;;;;8231194;28;20018;-84
2023/09/20 11:09:15;;;;;;;2.10;1.38;;;29.20;96.40;;;;;;8238552;28;20546;-85
2023/09/20 11:13:19;;;;;;;2.70;1.48;;;29.10;95.60;;;;;;8226684;28;20126;-85
2023/09/20 11:17:19;;;;;;;3.58;1.20;;;28.90;96.30;;;;;;8226488;28;20439;-84
2023/09/20 11:21:20;;;;;;;2.28;1.30;;;28.90;99.40;;;;;;8229862;28;20023;-84
2023/09/20 11:25:21;;;;;;;2.08;1.45;;;29.90;98.80;;;;;;8249121;28;20499;-84
2023/09/20 11:29:22;;;;;;;3.20;1.17;;;30.90;97.10;;;;;;8235573;28;20537;-83
2023/09/20 11:33:30;;;;;;;4.13;1.30;;;31.90;92.40;;;;;;8230278;28;20029;-85
2023/09/20 11:37:30;;;;;;;1.60;1.25;;;30.90;96.50;;;;;;8250391;28;20023;-85
2023/09/20 11:41:32;;;;;;;2.22;1.27;;;31.80;91.10;;;;;;8249080;28;20086;-84
2023/09/20 11:45:42;;;;;;;4.22;1.60;;;31.40;92.70;;;;;;8232207;28;20019;-83
2023/09/20 11:49:43;;;;;;;4.40;1.43;;;31.00;90.50;;;;;;8228388;28;20090;-84
2023/09/20 11:53:44;;;;;;;2.67;1.88;;;29.90;93.90;;;;;;8226473;28;20463;-84
2023/09/20 11:57:45;;;;;;;1.95;1.40;;;30.20;92.80;;;;;;8245838;28;20027;-83
2023/09/20 12:01:46;;;;;;;2.75;1.40;;;30.80;90.60;;;;;;8229269;28;20054;-85
2023/09/20 12:05:46;;;;;;;3.95;1.40;;;31.10;93.10;;;;;;8226447;28;20022;-84
2023/09/20 12:09:47;;;;;;;2.47;1.30;;;32.10;90.40;;;;;;8240223;28;20077;-84
2023/09/20 12:13:48;;;;;;;2.35;1.15;;;31.20;91.20;;;;;;8221769;28;20027;-86
2023/09/20 12:17:51;;;;;;;1.92;1.27;;;31.10;90.20;;;;;;8223245;28;20057;-84
2023/09/20 12:21:52;;;;;;;2.00;1.38;;;31.50;90.90;;;;;;8238963;28;20015;-86
2023/09/20 12:25:52;;;;;;;2.17;1.23;;;32.90;85.30;;;;;;8224202;28;20022;-84
2023/09/20 12:29:53;;;;;;;3.13;1.45;;;33.30;82.30;;;;;;8226738;28;20030;-85
2023/09/20 12:33:53;;;;;;;1.05;0.90;;;33.50;78.10;;;;;;8230932;28;20415;-84
2023/09/20 12:37:54;;;;;;;6.07;1.20;;;34.20;79.20;;;;;;8239356;28;20023;-83
2023/09/20 12:41:55;;;;;;;1.58;1.20;;;32.80;76.50;;;;;;8225194;28;20420;-83
2023/09/20 12:45:57;;;;;;;3.08;1.10;;;33.40;74.80;;;;;;8241390;28;20030;-84
2023/09/20 12:49:57;;;;;;;2.05;1.00;;;34.00;79.80;;;;;;8238804;28;20027;-86
2023/09/20 12:53:58;;;;;;;1.20;1.10;;;35.20;77.60;;;;;;8226123;28;20033;-84
2023/09/20 12:57:59;;;;;;;1.60;1.10;;;35.60;73.20;;;;;;8221113;28;20030;-85
2023/09/20 13:02:00;;;;;;;2.20;1.17;;;36.50;66.20;;;;;;8238532;28;20451;-84
2023/09/20 13:06:00;;;;;;;1.88;1.02;;;36.00;67.10;;;;;;8223201;28;20116;-84
2023/09/20 13:10:01;;;;;;;1.48;1.00;;;36.20;65.20;;;;;;8222558;28;20023;-85
2023/09/20 13:14:02;;;;;;;1.95;1.10;;;36.70;60.40;;;;;;8238933;28;20027;-84
2023/09/20 13:18:03;;;;;;;1.05;0.90;;;37.00;60.30;;;;;;8223994;28;20042;-84
2023/09/20 13:22:04;;;;;;;2.13;1.30;;;36.70;59.70;;;;;;8229252;28;20082;-85
2023/09/20 13:26:05;;;;;;;1.27;0.95;;;35.70;63.10;;;;;;8223345;28;20027;-86
2023/09/20 13:30:13;;;;;;;1.88;0.90;;;35.40;66.20;;;;;;8228797;28;20471;-84
2023/09/20 13:34:14;;;;;;;2.20;1.10;;;36.30;58.80;;;;;;8231143;28;20450;-84
2023/09/20 13:38:14;;;;;;;1.95;0.98;;;36.10;58.60;;;;;;8226396;28;20027;-84
2023/09/20 13:42:15;;;;;;;2.15;0.90;;;35.40;59.90;;;;;;8244491;28;20103;-84
2023/09/20 13:46:17;;;;;;;2.70;1.25;;;35.50;60.40;;;;;;8239252;28;20031;-84
2023/09/20 13:50:18;;;;;;;2.05;1.30;;;33.90;64.10;;;;;;8224657;28;20165;-86
2023/09/20 13:54:18;;;;;;;1.92;0.90;;;35.40;63.40;;;;;;8229329;28;20105;-84
2023/09/20 13:58:19;;;;;;;1.27;1.00;;;37.00;60.50;;;;;;8225398;28;20035;-84
2023/09/20 14:02:20;;;;;;;1.77;1.00;;;37.80;57.30;;;;;;8220572;28;20026;-87
2023/09/20 14:06:21;;;;;;;2.08;1.10;;;37.40;58.40;;;;;;8215072;28;20085;-85
2023/09/20 14:10:23;;;;;;;1.20;1.00;;;37.50;56.10;;;;;;8191838;28;20022;-85
2023/09/20 14:14:26;;;;;;;1.40;0.98;;;37.40;56.20;;;;;;8197360;28;20035;-86
2023/09/20 14:18:28;;;;;;;1.67;0.90;;;37.70;57.60;;;;;;8221800;28;20373;-84
2023/09/20 14:22:28;;;;;;;1.60;1.00;;;37.90;55.80;;;;;;8228564;28;20161;-84
2023/09/20 14:26:29;;;;;;;1.38;0.88;;;37.60;56.00;;;;;;8211559;28;20031;-84
2023/09/20 14:30:33;;;;;;;2.53;0.95;;;37.10;58.40;;;;;;8198684;28;20038;-84
2023/09/20 14:34:34;;;;;;;2.90;0.95;;;35.10;59.60;;;;;;8221382;28;20050;-84
2023/09/20 14:38:34;;;;;;;2.88;0.93;;;33.70;64.70;;;;;;8216138;28;20035;-85
2023/09/20 14:42:35;;;;;;;1.30;0.95;;;34.80;59.50;;;;;;8227973;28;20050;-85
2023/09/20 14:46:36;;;;;;;1.40;0.95;;;35.20;59.60;;;;;;8224429;28;20150;-84
2023/09/20 14:50:37;;;;;;;1.25;0.95;;;34.60;59.40;;;;;;8240136;28;20022;-85
2023/09/20 14:54:38;;;;;;;1.52;1.30;;;34.10;60.20;;;;;;8205187;28;20173;-84
2023/09/20 14:58:39;;;;;;;2.35;0.90;;;33.60;60.80;;;;;;8212351;28;20518;-85
2023/09/20 15:02:39;;;;;;;1.67;1.02;;;32.40;66.00;;;;;;8207889;28;20404;-84
2023/09/20 15:06:40;;;;;;;1.55;0.90;;;31.30;66.70;;;;;;8212749;28;20033;-84
2023/09/20 15:10:42;;;;;;;1.77;1.05;;;30.40;70.50;;;;;;8239339;28;20019;-85
2023/09/20 15:14:46;;;;;;;2.60;1.10;;;29.20;79.70;;;;;;8238496;28;20086;-83
2023/09/20 15:18:49;;;;;;;1.88;1.27;;;27.70;80.50;;;;;;8239786;28;20030;-83
2023/09/20 15:22:50;;;;;;;1.60;1.10;;;26.80;87.60;;;;;;8238772;28;20502;-83
2023/09/20 15:26:52;;;;;;;3.28;1.20;;;26.00;89.40;;;;;;8238358;28;20029;-85
2023/09/20 15:30:52;;;;;;;1.98;1.10;;;25.70;88.90;;;;;;8237346;28;20027;-83
2023/09/20 15:34:57;;;;;;;2.40;1.20;;;25.20;93.30;;;;;;8232907;28;20041;-85
2023/09/20 15:38:59;;;;;;;2.17;1.20;;;24.80;92.70;;;;;;8231906;28;20049;-83
2023/09/20 15:43:00;;;;;;;2.45;1.10;;;24.70;93.30;;;;;;8231531;28;20026;-84
2023/09/20 15:47:00;;;;;;;1.20;1.00;;;24.60;96.20;;;;;;8231776;28;20065;-84
2023/09/20 15:51:03;;;;;;;1.50;1.13;;;24.80;97.10;;;;;;8218616;28;20039;-84
2023/09/20 15:55:06;;;;;;;1.20;0.98;;;24.90;97.00;;;;;;8232936;28;20130;-84
2023/09/20 15:59:07;;;;;;;4.70;1.30;;;24.90;94.40;;;;;;8212365;28;20030;-84
2023/09/20 16:03:15;;;;;;;1.30;1.10;;;24.30;96.50;;;;;;8211563;28;20114;-83
2023/09/20 16:11:17;;;;;;;2.80;1.17;;;23.50;98.00;;;;;;8306176;23;20054;-80
2023/09/20 16:15:22;;;;;;;2.95;1.48;;;23.20;99.90;;;;;;8261388;28;20023;-81
2023/09/20 16:19:22;;;;;;;2.65;2.15;;;23.10;99.90;;;;;;8248806;28;20042;-80
2023/09/20 16:23:24;;;;;;;10.73;4.25;;;23.10;99.90;;;;;;8263672;28;20023;-80
2023/09/20 16:27:25;;;;;;;5.00;1.73;;;22.90;99.90;;;;;;8249206;28;20074;-81
2023/09/20 16:31:26;;;;;;;3.85;1.50;;;22.70;99.90;;;;;;8248612;28;20162;-81
2023/09/20 16:35:27;;;;;;;4.70;1.90;;;22.50;99.90;;;;;;8246310;28;20026;-81
2023/09/20 16:39:28;;;;;;;5.22;3.13;;;22.30;99.90;;;;;;8259239;28;20515;-80
2023/09/20 16:43:29;;;;;;;5.15;2.28;;;22.20;99.90;;;;;;8247946;28;20113;-80
2023/09/20 16:47:29;;;;;;;6.32;2.28;;;21.90;99.90;;;;;;8239122;28;20031;-80
2023/09/20 16:51:30;;;;;;;3.13;1.55;;;21.50;99.90;;;;;;8235072;28;20571;-79
2023/09/20 16:55:31;;;;;;;2.97;1.70;;;21.20;99.90;;;;;;8226586;28;20639;-80
2023/09/20 16:59:31;;;;;;;4.35;1.77;;;21.10;99.90;;;;;;8232563;28;20082;-81
2023/09/20 17:03:32;;;;;;;2.30;1.50;;;21.00;99.90;;;;;;8251074;28;20093;-81
2023/09/20 17:07:32;;;;;;;5.93;1.88;;;20.70;99.90;;;;;;8245170;28;20121;-80
2023/09/20 17:11:33;;;;;;;2.33;1.40;;;20.30;99.90;;;;;;8242241;28;20400;-79
2023/09/20 17:15:34;;;;;;;2.63;1.42;;;19.90;99.90;;;;;;8248564;28;20105;-81
2023/09/20 17:19:34;;;;;;;3.35;1.40;;;19.60;99.90;;;;;;8238732;28;20027;-80
2023/09/20 17:23:35;;;;;;;2.45;1.88;;;19.40;99.90;;;;;;8243749;28;20091;-81
2023/09/20 17:27:36;;;;;;;3.65;1.63;;;19.10;99.90;;;;;;8254691;28;20026;-81
2023/09/20 17:31:37;;;;;;;2.45;1.35;;;18.90;99.90;;;;;;8239089;28;20073;-80
2023/09/20 17:35:37;;;;;;;2.95;1.80;;;18.70;99.90;;;;;;8241591;28;20023;-80
2023/09/20 17:39:38;;;;;;;3.35;1.30;;;18.70;99.90;;;;;;8237331;28;20501;-80
2023/09/20 17:43:39;;;;;;;1.90;1.60;;;18.80;99.90;;;;;;8238865;28;20026;-81
2023/09/20 17:47:42;;;;;;;3.47;1.33;;;18.70;99.90;;;;;;8239603;28;20022;-80
2023/09/20 17:51:42;;;;;;;3.78;1.35;;;18.60;99.90;;;;;;8224141;28;20033;-80
2023/09/20 17:55:43;;;;;;;1.75;1.40;;;18.30;99.90;;;;;;8248054;28;20663;-80
2023/09/20 17:59:43;;;;;;;2.47;1.80;;;17.90;99.90;;;;;;8237642;28;20018;-79
2023/09/20 18:03:44;;;;;;;2.53;1.60;;;17.60;99.90;;;;;;8233156;28;20113;-80
2023/09/20 18:07:45;;;;;;;4.07;1.52;;;17.50;99.90;;;;;;8240150;28;20065;-80
2023/09/20 18:11:48;;;;;;;3.80;1.77;;;17.30;99.90;;;;;;8256404;28;20479;-81
2023/09/20 18:15:49;;;;;;;4.32;1.65;;;17.10;99.90;;;;;;8232626;28;20050;-81
2023/09/20 18:19:51;;;;;;;1.60;1.45;;;17.20;99.90;;;;;;8238308;28;20022;-81
2023/09/20 18:23:52;;;;;;;2.65;1.60;;;17.00;99.90;;;;;;8239182;28;20065;-80
2023/09/20 18:27:53;;;;;;;2.58;1.77;;;16.80;99.90;;;;;;8229530;28;20487;-80
2023/09/20 18:31:53;;;;;;;3.25;1.83;;;16.70;99.90;;;;;;8217535;28;20083;-80
2023/09/20 18:35:55;;;;;;;5.15;1.70;;;16.50;99.90;;;;;;8215282;28;20023;-81
2023/09/20 18:39:55;;;;;;;3.25;1.60;;;16.50;99.90;;;;;;8222822;28;20030;-80
2023/09/20 18:43:58;;;;;;;3.65;1.70;;;16.40;99.90;;;;;;8226165;28;20025;-80
2023/09/20 18:47:59;;;;;;;3.17;1.73;;;16.10;99.90;;;;;;8222197;28;20027;-80
2023/09/20 18:52:00;;;;;;;4.78;1.95;;;15.90;99.90;;;;;;8222636;28;20025;-80
2023/09/20 18:56:02;;;;;;;4.38;1.70;;;15.80;99.90;;;;;;8221796;28;20066;-79
2023/09/20 19:00:07;;;;;;;4.65;1.90;;;15.60;99.90;;;;;;8216732;28;20025;-80
2023/09/20 19:04:08;;;;;;;4.43;2.00;;;15.50;99.90;;;;;;8211227;28;20023;-80
2023/09/20 19:08:11;;;;;;;2.47;1.90;;;15.50;99.90;;;;;;8216108;28;20031;-80
2023/09/20 19:12:13;;;;;;;2.50;1.88;;;15.60;99.90;;;;;;8215536;28;20069;-80
2023/09/20 19:16:14;;;;;;;2.78;1.80;;;15.60;99.90;;;;;;8212835;28;20038;-78
2023/09/20 19:20:19;;;;;;;7.20;1.98;;;15.50;99.90;;;;;;8223093;28;20114;-81
2023/09/20 19:24:23;;;;;;;3.08;2.13;;;15.40;99.90;;;;;;8209494;28;20019;-79
2023/09/20 19:28:24;;;;;;;3.97;1.80;;;15.10;99.90;;;;;;8213321;28;20748;-80
2023/09/20 19:32:25;;;;;;;7.35;2.05;;;15.00;99.90;;;;;;8214391;28;20027;-80
2023/09/20 19:36:27;;;;;;;11.40;5.22;;;14.80;99.90;;;;;;8222836;28;20196;-80
2023/09/20 19:40:28;;;;;;;8.77;4.40;;;14.70;99.90;;;;;;8235129;28;20546;-80
2023/09/20 19:44:28;;;;;;;12.75;7.18;;;14.60;99.90;;;;;;8240512;28;20041;-80
2023/09/20 19:48:29;;;;;;;6.63;3.45;;;14.50;99.90;;;;;;8230135;28;20034;-80
2023/09/20 19:52:29;;;;;;;8.73;4.38;;;14.50;99.90;;;;;;8233053;28;20033;-79
2023/09/20 19:56:32;;;;;;;4.60;2.60;;;14.50;99.90;;;;;;8248041;28;20077;-80
2023/09/20 20:00:33;;;;;;;3.15;2.35;;;14.50;99.90;;;;;;8230550;28;20034;-80
2023/09/20 20:04:34;;;;;;;4.15;2.45;;;14.50;99.90;;;;;;8236909;28;20058;-80
2023/09/20 20:08:37;;;;;;;4.68;2.55;;;14.40;99.90;;;;;;8232506;28;20061;-79
2023/09/20 20:12:40;;;;;;;4.20;2.75;;;14.40;99.90;;;;;;8227530;28;20026;-79
2023/09/20 20:16:41;;;;;;;8.32;2.80;;;14.40;99.90;;;;;;8236626;28;20081;-80
2023/09/20 20:20:42;;;;;;;3.42;2.40;;;14.30;99.90;;;;;;8246148;28;20452;-80
2023/09/20 20:24:43;;;;;;;4.60;2.40;;;14.30;99.90;;;;;;8229121;28;20066;-80
2023/09/20 20:28:43;;;;;;;3.42;2.60;;;14.30;99.90;;;;;;8233210;28;20038;-80
2023/09/20 20:32:47;;;;;;;4.60;2.72;;;14.20;99.90;;;;;;8225768;28;20051;-79
2023/09/20 20:36:48;;;;;;;7.32;2.95;;;14.30;99.90;;;;;;8233803;28;20039;-80
2023/09/20 20:40:48;;;;;;;4.40;2.80;;;14.20;99.90;;;;;;8231674;28;20033;-79
2023/09/20 20:44:49;;;;;;;6.80;2.60;;;14.20;99.90;;;;;;8229879;28;20019;-79
2023/09/20 20:48:51;;;;;;;3.72;2.47;;;14.20;99.90;;;;;;8238954;28;20510;-81
2023/09/20 20:53:00;;;;;;;3.00;2.50;;;14.10;99.90;;;;;;8247193;28;20034;-80
2023/09/20 20:57:01;;;;;;;4.40;2.55;;;14.00;99.90;;;;;;8233311;28;20023;-78
2023/09/20 21:01:05;;;;;;;3.20;2.33;;;14.00;99.90;;;;;;8224000;28;20055;-79
2023/09/20 21:05:06;;;;;;;5.07;2.35;;;13.80;99.90;;;;;;8242592;28;20033;-79
2023/09/20 21:09:07;;;;;;;3.08;2.47;;;13.70;99.90;;;;;;8234849;28;20102;-79
2023/09/20 21:13:12;;;;;;;2.90;2.60;;;13.70;99.90;;;;;;8255725;28;20402;-79
2023/09/20 21:17:13;;;;;;;2.83;2.47;;;13.60;99.90;;;;;;8230129;28;20034;-78
2023/09/20 21:21:16;;;;;;;3.47;2.60;;;13.50;99.90;;;;;;8232976;28;20030;-79
2023/09/20 21:25:18;;;;;;;3.45;2.72;;;13.50;99.90;;;;;;8247495;28;20029;-79
2023/09/20 21:29:20;;;;;;;6.22;2.90;;;13.50;99.90;;;;;;8256635;28;20046;-81
2023/09/20 21:33:21;;;;;;;3.45;2.40;;;13.60;99.90;;;;;;8249764;28;20036;-79
2023/09/20 21:37:21;;;;;;;5.22;2.67;;;13.60;99.90;;;;;;8238022;28;20033;-79
2023/09/20 21:41:22;;;;;;;3.78;2.72;;;13.60;99.90;;;;;;8263997;28;20055;-82